Time;durP1;ratioP1;P1;durP2;ratioP2;P2;SDS_P1;SDS_P2;PMS_P1;PMS_P2;Temp;Humidity;BMP_temperature;BMP_pressure;BME280_temperature;BME280_humidity;BME280_pressure;Samples;Min_cycle;Max_cycle;Signal;HPM_P1;HPM_P2
2021/11/13 00:01:55;;;;;;;5.73;2.40;;;;;;;5.86;70.87;99201.59;4935300;29;20126;-79
2021/11/13 00:04:21;;;;;;;5.28;2.50;;;;;;;5.88;71.34;99213.78;4933740;29;20287;-79
2021/11/13 00:06:47;;;;;;;5.93;2.95;;;;;;;5.93;71.15;99223.84;4936239;29;20039;-79
2021/11/13 00:09:14;;;;;;;4.72;2.42;;;;;;;5.78;71.86;99227.44;4928076;29;20046;-78
2021/11/13 00:11:41;;;;;;;6.18;2.60;;;;;;;5.78;71.89;99205.75;4906332;29;20465;-80
2021/11/13 00:14:16;;;;;;;5.00;3.10;;;;;;;5.87;72.25;99214.91;4937970;29;20540;-80
2021/11/13 00:16:42;;;;;;;4.72;2.95;;;;;;;5.85;72.38;99244.19;4936404;29;20070;-81
2021/11/13 00:19:09;;;;;;;6.85;2.70;;;;;;;5.81;72.26;99218.75;4937956;29;20386;-80
2021/11/13 00:21:36;;;;;;;7.10;2.92;;;;;;;5.71;72.76;99224.25;4936695;29;20039;-80
2021/11/13 00:24:02;;;;;;;5.35;3.28;;;;;;;5.68;72.94;99243.78;4925638;29;20047;-81
2021/11/13 00:26:30;;;;;;;6.13;2.90;;;;;;;5.64;72.87;99221.84;4924910;29;20127;-79
2021/11/13 00:28:57;;;;;;;8.00;3.03;;;;;;;5.71;72.97;99231.56;4936708;29;20054;-78
2021/11/13 00:31:25;;;;;;;8.57;3.75;;;;;;;5.60;72.89;99237.09;4931424;29;20028;-78
2021/11/13 00:33:51;;;;;;;6.07;3.03;;;;;;;5.68;72.95;99243.78;4929277;29;20435;-79
2021/11/13 00:36:20;;;;;;;6.40;3.38;;;;;;;5.71;72.55;99242.44;4936843;29;20051;-78
2021/11/13 00:38:46;;;;;;;6.63;3.05;;;;;;;5.78;71.91;99259.19;4932472;29;20126;-77
2021/11/13 00:41:12;;;;;;;5.50;3.17;;;;;;;5.79;71.95;99252.66;4921838;29;20130;-78
2021/11/13 00:43:38;;;;;;;4.25;2.50;;;;;;;5.83;71.81;99262.69;4928121;29;20486;-79
2021/11/13 00:46:05;;;;;;;4.83;2.80;;;;;;;5.82;71.42;99269.19;4931723;29;20043;-78
2021/11/13 00:48:32;;;;;;;6.32;2.80;;;;;;;5.68;71.18;99249.22;4921377;29;20453;-79
2021/11/13 00:50:59;;;;;;;4.45;2.72;;;;;;;5.84;70.92;99279.75;4922965;29;20044;-78
2021/11/13 00:53:25;;;;;;;5.28;2.40;;;;;;;5.77;70.49;99268.44;4935897;29;20182;-80
2021/11/13 00:55:53;;;;;;;5.03;2.63;;;;;;;5.84;70.78;99282.47;4933174;29;20083;-80
2021/11/13 00:58:20;;;;;;;4.22;2.50;;;;;;;5.80;70.67;99287.66;4935301;29;20405;-78
2021/11/13 01:00:48;;;;;;;4.68;2.50;;;;;;;5.76;71.24;99294.75;4935575;29;20043;-78
2021/11/13 01:03:15;;;;;;;4.13;2.28;;;;;;;5.76;71.23;99294.75;4935293;29;20043;-79
2021/11/13 01:05:42;;;;;;;4.25;2.30;;;;;;;5.65;71.54;99279.59;4933006;29;20039;-82
2021/11/13 01:08:08;;;;;;;4.68;2.30;;;;;;;5.75;71.76;99303.16;4922300;29;20126;-79
2021/11/13 01:10:35;;;;;;;3.70;2.35;;;;;;;5.64;71.75;99313.25;4921338;29;20040;-79
2021/11/13 01:13:01;;;;;;;7.07;2.60;;;;;;;5.69;71.59;99302.34;4936971;29;20059;-79
2021/11/13 01:15:27;;;;;;;4.57;2.28;;;;;;;5.64;71.45;99303.22;4936675;29;20422;-79
2021/11/13 01:17:54;;;;;;;6.50;2.40;;;;;;;5.69;71.35;99313.22;4935591;29;20083;-79
2021/11/13 01:20:23;;;;;;;4.45;2.00;;;;;;;5.72;70.97;99314.56;4935735;29;20525;-79
2021/11/13 01:22:50;;;;;;;3.00;2.00;;;;;;;5.70;70.98;99306.72;4936215;29;20039;-79
2021/11/13 01:25:16;;;;;;;5.90;1.80;;;;;;;5.80;70.89;99316.69;4936166;29;20044;-79
2021/11/13 01:27:43;;;;;;;6.57;2.40;;;;;;;5.86;70.48;99324.50;4935626;29;20489;-79
2021/11/13 01:30:11;;;;;;;;;;;;;;;5.84;70.48;99329.41;4936653;29;20054;-79
2021/11/13 01:32:37;;;;;;;2.50;1.92;;;;;;;5.74;70.58;99334.88;4936497;29;20297;-79
2021/11/13 01:35:06;;;;;;;5.43;2.00;;;;;;;5.72;70.61;99334.34;4935233;29;20032;-79
2021/11/13 01:37:32;;;;;;;3.25;1.80;;;;;;;5.81;70.10;99329.97;4935973;29;20036;-79
2021/11/13 01:40:06;;;;;;;3.17;1.80;;;;;;;5.75;69.42;99331.06;4936145;29;20036;-81
2021/11/13 01:42:33;;;;;;;3.50;2.10;;;;;;;5.78;69.54;99352.22;4936596;29;20090;-79
2021/11/13 01:45:00;;;;;;;5.23;1.70;;;;;;;5.83;69.58;99351.41;4935575;29;20039;-80
2021/11/13 01:47:29;;;;;;;3.85;1.45;;;;;;;5.70;68.91;99355.53;4935476;29;20054;-79
2021/11/13 01:49:55;;;;;;;7.70;2.30;;;;;;;5.78;68.37;99351.41;4935980;29;20126;-79
2021/11/13 01:52:21;;;;;;;4.57;1.75;;;;;;;5.75;68.57;99354.69;4935795;29;20074;-79
2021/11/13 01:54:47;;;;;;;6.55;1.50;;;;;;;5.88;67.96;99368.44;4936301;29;20044;-78
2021/11/13 01:57:21;;;;;;;6.68;1.33;;;;;;;5.78;68.13;99356.84;4936385;29;20047;-80
2021/11/13 01:59:51;;;;;;;3.30;1.58;;;;;;;5.69;68.09;99363.94;4935828;29;20549;-78
2021/11/13 02:02:18;;;;;;;2.45;1.35;;;;;;;5.71;68.16;99388.88;4916586;29;20044;-78
2021/11/13 02:04:47;;;;;;;3.15;1.75;;;;;;;5.76;68.27;99383.41;4916483;29;20044;-79
2021/11/13 02:07:13;;;;;;;3.28;1.60;;;;;;;5.67;68.49;99374.25;4927679;29;20046;-78
2021/11/13 02:09:39;;;;;;;3.47;1.27;;;;;;;5.74;68.63;99396.47;4935403;29;20126;-79
2021/11/13 02:12:06;;;;;;;2.33;1.53;;;;;;;5.68;68.19;99381.31;4858623;29;2216155;-79
2021/11/13 02:14:33;;;;;;;1.70;1.30;;;;;;;5.76;68.70;99397.81;4936341;29;20505;-82
2021/11/13 02:16:59;;;;;;;3.13;1.40;;;;;;;5.81;68.23;99413.25;4936085;29;20094;-80
2021/11/13 02:19:27;;;;;;;3.45;1.85;;;;;;;5.64;68.91;99408.97;4935881;29;20405;-77
2021/11/13 02:21:59;;;;;;;2.83;1.40;;;;;;;5.62;69.48;99403.00;4935863;29;20050;-79
2021/11/13 02:24:25;;;;;;;2.65;1.80;;;;;;;5.69;69.30;99429.81;4936394;29;20175;-80
2021/11/13 02:26:52;;;;;;;3.00;1.75;;;;;;;5.75;68.95;99428.72;4930591;29;20044;-79
2021/11/13 02:29:20;;;;;;;2.67;2.00;;;;;;;5.79;68.88;99437.13;4916797;29;20080;-79
2021/11/13 02:31:47;;;;;;;4.00;1.88;;;;;;;5.78;68.30;99428.16;4917132;29;20048;-80
2021/11/13 02:34:14;;;;;;;3.50;1.80;;;;;;;5.87;68.36;99431.94;4916856;29;20124;-79
2021/11/13 02:36:41;;;;;;;2.92;2.08;;;;;;;5.86;68.29;99427.59;4923452;29;20070;-79
2021/11/13 02:39:12;;;;;;;3.70;2.03;;;;;;;5.90;68.83;99454.97;4936323;29;20043;-83
2021/11/13 02:41:44;;;;;;;3.75;1.90;;;;;;;5.89;68.96;99464.19;4936358;29;20558;-81
2021/11/13 02:44:13;;;;;;;8.25;1.98;;;;;;;5.85;69.75;99460.41;4918175;29;20127;-79
2021/11/13 02:46:40;;;;;;;4.82;1.90;;;;;;;5.81;69.10;99464.78;4934908;29;20039;-80
2021/11/13 02:49:07;;;;;;;2.75;1.67;;;;;;;5.85;69.78;99465.84;4935400;29;20564;-79
2021/11/13 02:51:33;;;;;;;6.10;2.03;;;;;;;5.79;70.11;99469.66;4935920;29;20103;-80
2021/11/13 02:54:00;;;;;;;5.40;2.00;;;;;;;5.67;69.31;99467.28;4935170;29;20047;-81
2021/11/13 02:56:28;;;;;;;3.38;1.75;;;;;;;5.75;69.31;99488.41;4935238;29;20417;-79
2021/11/13 02:58:56;;;;;;;6.50;2.03;;;;;;;5.66;69.82;99484.63;4935285;29;20412;-80
2021/11/13 03:01:24;;;;;;;2.65;1.92;;;;;;;5.69;69.93;99492.22;4935403;29;20130;-79
2021/11/13 03:03:55;;;;;;;3.80;1.98;;;;;;;5.71;70.18;99494.66;4935641;29;20044;-81
2021/11/13 03:06:21;;;;;;;3.15;1.70;;;;;;;5.62;70.39;99499.84;4935098;29;20054;-79
2021/11/13 03:08:53;;;;;;;7.25;1.98;;;;;;;5.63;70.94;99504.19;4932832;29;20099;-79
2021/11/13 03:11:21;;;;;;;4.38;2.17;;;;;;;5.69;71.31;99516.63;4935379;29;20047;-82
2021/11/13 03:13:50;;;;;;;6.70;3.25;;;;;;;5.69;71.16;99511.19;4935260;29;20094;-80
2021/11/13 03:16:21;;;;;;;7.57;2.47;;;;;;;5.63;71.44;99523.97;4940069;29;20039;-79
2021/11/13 03:18:47;;;;;;;3.25;2.20;;;;;;;5.51;71.77;99528.06;4952082;29;20058;-78
2021/11/13 03:21:15;;;;;;;3.78;2.22;;;;;;;5.53;72.02;99525.88;4948723;29;20020;-79
2021/11/13 03:23:45;;;;;;;5.82;2.55;;;;;;;5.54;71.78;99527.53;4942363;29;20047;-80
2021/11/13 03:26:20;;;;;;;3.80;2.10;;;;;;;5.48;71.92;99525.91;4951843;29;20046;-78
2021/11/13 03:29:09;;;;;;;3.13;1.75;;;;;;;5.47;71.90;99540.56;4917753;29;20044;-79
2021/11/13 03:31:37;;;;;;;2.78;1.73;;;;;;;5.47;71.89;99543.28;4916604;29;20130;-79
2021/11/13 03:34:05;;;;;;;8.27;2.70;;;;;;;5.39;71.87;99531.88;4917278;29;20035;-79
2021/11/13 03:36:33;;;;;;;3.28;2.30;;;;;;;5.37;72.57;99544.09;4938202;29;20054;-79
2021/11/13 03:38:59;;;;;;;5.32;2.13;;;;;;;5.33;71.93;99537.56;4941526;29;20048;-80
2021/11/13 03:41:29;;;;;;;4.85;2.25;;;;;;;5.44;71.83;99551.94;4938594;29;20039;-79
2021/11/13 03:43:55;;;;;;;4.97;2.50;;;;;;;5.27;72.22;99553.03;4934638;29;20081;-79
2021/11/13 03:46:22;;;;;;;4.63;2.75;;;;;;;5.35;72.26;99570.66;4934459;29;20421;-79
2021/11/13 03:48:50;;;;;;;4.15;2.40;;;;;;;5.38;72.65;99570.91;4934820;29;20094;-79
2021/11/13 03:51:20;;;;;;;3.40;2.17;;;;;;;5.29;72.33;99575.25;4935216;29;20584;-79
2021/11/13 03:53:48;;;;;;;4.10;2.55;;;;;;;5.27;72.48;99573.91;4934929;29;20044;-79
2021/11/13 03:56:15;;;;;;;3.85;2.50;;;;;;;5.25;72.75;99589.63;4933570;29;20036;-80
2021/11/13 03:58:42;;;;;;;6.87;3.07;;;;;;;5.16;72.91;99567.66;4935467;29;20044;-80
2021/11/13 04:01:10;;;;;;;6.78;3.17;;;;;;;5.24;73.04;99596.13;4935949;29;20052;-79
2021/11/13 04:03:36;;;;;;;4.75;2.53;;;;;;;5.22;72.71;99612.66;4935465;29;20588;-80
2021/11/13 04:06:02;;;;;;;5.65;3.08;;;;;;;5.22;73.14;99601.00;4934389;29;20071;-79
2021/11/13 04:08:29;;;;;;;6.18;3.08;;;;;;;5.22;73.41;99607.25;4933458;29;20126;-81
2021/11/13 04:10:55;;;;;;;4.10;2.72;;;;;;;5.18;73.11;99611.56;4934913;29;20043;-82
2021/11/13 04:13:21;;;;;;;6.93;3.53;;;;;;;5.13;73.71;99608.84;4933060;29;20067;-80
2021/11/13 04:15:48;;;;;;;8.85;3.33;;;;;;;5.09;73.23;99624.03;4933931;29;20043;-79
2021/11/13 04:18:14;;;;;;;9.05;3.65;;;;;;;5.10;73.71;99622.94;4934726;29;20413;-79
2021/11/13 04:20:45;;;;;;;9.05;3.70;;;;;;;5.05;73.91;99628.38;4915554;29;20637;-79
2021/11/13 04:23:12;;;;;;;8.07;3.78;;;;;;;5.06;73.19;99627.28;4924427;29;20139;-80
2021/11/13 04:25:39;;;;;;;;;;;;;;;5.16;73.45;99636.22;4934256;29;20040;-79
2021/11/13 04:28:05;;;;;;;5.93;3.50;;;;;;;5.12;73.19;99639.75;4933907;29;19923;-79
2021/11/13 04:30:32;;;;;;;6.05;3.65;;;;;;;5.17;73.21;99639.78;4934889;29;20122;-79
2021/11/13 04:32:58;;;;;;;7.13;3.20;;;;;;;5.22;72.65;99641.66;4933979;29;20552;-79
2021/11/13 04:38:00;;;;;;;11.88;4.22;;;;;;;5.25;72.52;99643.84;4934652;29;20460;-80
2021/11/13 04:40:29;;;;;;;10.68;4.75;;;;;;;5.15;72.32;99640.03;4935226;29;20036;-78
2021/11/13 04:42:57;;;;;;;5.97;3.80;;;;;;;5.30;72.29;99660.13;4933804;29;20600;-80
2021/11/13 04:45:23;;;;;;;4.07;2.70;;;;;;;5.28;71.91;99673.09;4934556;29;20087;-80
2021/11/13 04:47:50;;;;;;;5.60;3.20;;;;;;;5.29;71.70;99678.25;4934853;29;20293;-80
2021/11/13 04:50:20;;;;;;;9.93;4.18;;;;;;;5.25;71.81;99654.69;4935030;29;20063;-78
2021/11/13 04:52:48;;;;;;;6.55;3.72;;;;;;;5.32;71.78;99675.00;4935576;29;20039;-80
2021/11/13 04:55:14;;;;;;;;;;;;;;;5.25;71.89;99693.44;4938556;29;20127;-80
2021/11/13 04:57:44;;;;;;;5.20;3.22;;;;;;;5.06;71.77;99660.59;4935822;29;20010;-79
2021/11/13 05:00:19;;;;;;;8.35;3.65;;;;;;;5.31;71.43;99688.84;4937682;29;20540;-80
2021/11/13 05:02:47;;;;;;;5.35;3.28;;;;;;;5.31;71.42;99683.41;4937494;29;20040;-80
2021/11/13 05:05:14;;;;;;;7.47;3.13;;;;;;;5.29;71.16;99696.41;4937182;29;20516;-80
2021/11/13 05:07:40;;;;;;;10.13;4.55;;;;;;;5.25;71.43;99698.03;4936830;29;20449;-80
2021/11/13 05:10:07;;;;;;;7.10;4.05;;;;;;;5.27;71.62;99696.69;4936294;29;20059;-81
2021/11/13 05:12:36;;;;;;;4.85;3.50;;;;;;;5.34;70.92;99712.69;4936021;29;20051;-79
2021/11/13 05:15:05;;;;;;;9.50;3.58;;;;;;;5.30;71.12;99704.28;4936137;29;20048;-80
2021/11/13 05:17:33;;;;;;;6.45;3.88;;;;;;;5.40;70.65;99723.28;4919181;29;20044;-79
2021/11/13 05:20:09;;;;;;;19.05;4.70;;;;;;;5.48;70.81;99726.53;4936940;29;20572;-80
2021/11/13 05:22:37;;;;;;;4.25;2.45;;;;;;;5.41;70.65;99738.47;4935705;29;20456;-80
2021/11/13 05:25:06;;;;;;;8.63;4.00;;;;;;;5.43;70.32;99727.38;4937055;29;20047;-79
2021/11/13 05:27:34;;;;;;;6.65;3.58;;;;;;;5.42;70.51;99742.78;4936354;29;20079;-79
2021/11/13 05:30:01;;;;;;;6.82;3.97;;;;;;;5.39;70.43;99729.78;4934005;29;20455;-78
2021/11/13 05:32:30;;;;;;;6.75;3.25;;;;;;;5.52;70.22;99743.91;4926782;29;20058;-80
2021/11/13 05:34:57;;;;;;;6.88;3.90;;;;;;;5.49;70.58;99747.94;4917462;29;20040;-79
2021/11/13 05:37:25;;;;;;;8.18;3.88;;;;;;;5.22;70.51;99734.63;4933659;29;20050;-80
2021/11/13 05:39:51;;;;;;;9.25;4.75;;;;;;;5.38;70.91;99755.25;4924775;29;20048;-79
2021/11/13 05:42:17;;;;;;;6.65;3.85;;;;;;;5.54;70.30;99768.88;4922204;29;20050;-81
2021/11/13 05:44:43;;;;;;;7.90;4.20;;;;;;;5.43;70.34;99776.16;4935817;29;20420;-80
2021/11/13 05:47:10;;;;;;;;;;;;;;;5.52;70.15;99790.00;4939036;28;20517;-79
2021/11/13 05:49:36;;;;;;;11.27;4.35;;;;;;;5.51;70.59;99791.09;4919146;29;19950;-78
2021/11/13 05:52:03;;;;;;;13.52;3.58;;;;;;;5.53;70.15;99797.03;4935895;29;20452;-80
2021/11/13 05:54:29;;;;;;;8.20;4.30;;;;;;;5.52;69.94;99787.28;4905893;29;20076;-87
2021/11/13 05:56:56;;;;;;;10.02;4.57;;;;;;;5.59;70.08;99793.25;4921984;29;20335;-80
2021/11/13 05:59:22;;;;;;;7.72;3.70;;;;;;;5.63;70.13;99799.81;4928019;29;20044;-76
2021/11/13 06:01:50;;;;;;;11.93;4.13;;;;;;;5.63;69.47;99811.47;4917297;29;20410;-76
2021/11/13 06:04:16;;;;;;;13.52;5.63;;;;;;;5.58;70.06;99789.75;4916940;29;20115;-77
2021/11/13 06:06:42;;;;;;;9.15;4.85;;;;;;;5.63;69.86;99816.06;4917216;29;20046;-78
2021/11/13 06:09:08;;;;;;;14.82;4.50;;;;;;;5.71;69.88;99812.81;4922014;29;20110;-79
2021/11/13 06:11:34;;;;;;;10.98;3.92;;;;;;;5.68;69.71;99812.53;4916619;29;20560;-75
2021/11/13 06:14:00;;;;;;;10.35;4.00;;;;;;;5.72;70.00;99824.47;4916847;29;20052;-78
2021/11/13 06:16:27;;;;;;;6.85;3.72;;;;;;;5.80;69.78;99818.53;4935384;29;20050;-77
2021/11/13 06:18:53;;;;;;;8.07;4.03;;;;;;;5.80;69.42;99821.25;4934375;29;20043;-75
2021/11/13 06:21:20;;;;;;;7.38;3.55;;;;;;;5.79;69.31;99825.84;4931666;29;20050;-73
2021/11/13 06:23:46;;;;;;;9.55;4.30;;;;;;;5.78;69.62;99835.06;4932023;29;20032;-76
2021/11/13 06:26:15;;;;;;;9.80;4.22;;;;;;;5.85;68.79;99843.75;4916760;29;20151;-77
2021/11/13 06:28:41;;;;;;;12.15;4.60;;;;;;;5.91;69.02;99836.47;4917386;29;20179;-78
2021/11/13 06:31:08;;;;;;;8.23;4.22;;;;;;;5.91;68.52;99847.31;4917385;29;20052;-76
2021/11/13 06:33:37;;;;;;;13.95;4.03;;;;;;;5.87;69.18;99849.75;4917157;29;20044;-78
2021/11/13 06:36:04;;;;;;;6.47;3.53;;;;;;;5.79;68.88;99850.25;4916892;29;20127;-78
2021/11/13 06:38:30;;;;;;;8.27;4.20;;;;;;;5.88;68.66;99851.38;4916232;29;20668;-76
2021/11/13 06:40:57;;;;;;;8.03;3.77;;;;;;;5.89;68.67;99861.16;4915326;29;20532;-76
2021/11/13 06:43:23;;;;;;;6.80;4.00;;;;;;;5.92;68.97;99859.78;4916526;29;20128;-76
2021/11/13 06:45:49;;;;;;;11.52;4.20;;;;;;;5.96;68.16;99866.38;4916827;29;20134;-76
2021/11/13 06:48:15;;;;;;;14.00;3.95;;;;;;;5.93;68.39;99866.06;4916440;29;20078;-78
2021/11/13 06:50:42;;;;;;;6.13;4.10;;;;;;;6.01;68.38;99871.78;4916762;29;20052;-81
2021/11/13 06:53:08;;;;;;;8.55;4.00;;;;;;;5.99;67.81;99865.78;4916311;29;20450;-82
2021/11/13 06:55:34;;;;;;;3.88;2.40;;;;;;;5.85;68.30;99878.22;4916073;29;20040;-79
2021/11/13 06:58:00;;;;;;;9.32;3.50;;;;;;;5.87;68.53;99885.03;4916355;29;20052;-77
2021/11/13 07:00:26;;;;;;;12.93;3.58;;;;;;;5.96;68.30;99890.78;4916460;29;20091;-77
2021/11/13 07:02:53;;;;;;;20.30;4.60;;;;;;;5.85;68.02;99892.59;4915936;29;20154;-77
2021/11/13 07:05:19;;;;;;;;;;;;;;;5.84;68.03;99901.84;4916063;29;20044;-77
2021/11/13 07:07:46;;;;;;;11.43;4.80;;;;;;;6.03;67.58;99909.53;4916148;29;19927;-78
2021/11/13 07:10:15;;;;;;;6.68;3.83;;;;;;;6.05;68.04;99916.28;4916099;29;20154;-77
2021/11/13 07:12:41;;;;;;;10.68;3.58;;;;;;;6.19;67.21;99916.63;4915117;29;20085;-76
2021/11/13 07:15:08;;;;;;;5.90;3.33;;;;;;;6.00;67.48;99919.00;4916122;29;20052;-76
2021/11/13 07:17:34;;;;;;;11.38;4.18;;;;;;;6.10;67.40;99916.31;4916462;29;20052;-79
2021/11/13 07:20:02;;;;;;;7.30;3.67;;;;;;;6.19;67.44;99916.63;4915227;29;20048;-78
2021/11/13 07:22:29;;;;;;;11.55;4.50;;;;;;;6.18;67.33;99925.00;4916259;29;20422;-77
2021/11/13 07:24:55;;;;;;;8.18;3.92;;;;;;;6.11;67.56;99917.13;4916284;29;20134;-78
2021/11/13 07:27:21;;;;;;;12.23;4.55;;;;;;;6.15;67.33;99930.97;4916344;29;20080;-77
2021/11/13 07:29:57;;;;;;;13.32;5.03;;;;;;;6.22;67.10;99926.91;4916115;29;20082;-80
2021/11/13 07:32:25;;;;;;;18.45;5.82;;;;;;;6.05;66.94;99920.91;4919454;29;20073;-79
2021/11/13 07:34:51;;;;;;;19.67;6.22;;;;;;;6.21;67.01;99930.72;4926402;29;20040;-78
2021/11/13 07:37:19;;;;;;;16.70;5.25;;;;;;;6.23;66.98;99931.28;4927600;29;20060;-78
2021/11/13 07:39:45;;;;;;;17.08;5.10;;;;;;;6.31;67.50;99935.34;4915940;29;20048;-77
2021/11/13 07:42:13;;;;;;;17.30;6.10;;;;;;;6.30;67.21;99944.59;4916017;29;20402;-77
2021/11/13 07:44:39;;;;;;;33.80;7.47;;;;;;;6.40;67.04;99938.34;4916005;29;20160;-80
2021/11/13 07:47:06;;;;;;;12.48;5.70;;;;;;;6.45;67.05;99946.50;4915829;29;20044;-77
2021/11/13 07:49:41;;;;;;;21.38;5.80;;;;;;;6.31;66.30;99935.34;4915475;29;20457;-78
2021/11/13 07:52:07;;;;;;;21.80;5.07;;;;;;;6.42;66.92;99950.56;4913088;29;20044;-78
2021/11/13 07:54:33;;;;;;;20.53;5.63;;;;;;;6.41;66.72;99961.72;4914963;29;20391;-79
2021/11/13 07:57:01;;;;;;;16.38;5.20;;;;;;;6.40;67.02;99954.66;4915501;29;20597;-76
2021/11/13 07:59:27;;;;;;;12.75;5.18;;;;;;;6.38;67.04;99954.09;4915911;29;20044;-76
2021/11/13 08:01:55;;;;;;;12.27;4.95;;;;;;;6.58;66.46;99963.06;4915905;29;20106;-78
2021/11/13 08:04:21;;;;;;;24.17;5.53;;;;;;;6.45;66.34;99965.50;4914865;29;20079;-80
2021/11/13 08:06:47;;;;;;;11.80;4.65;;;;;;;6.44;66.25;99967.41;4916135;29;20047;-77
2021/11/13 08:09:13;;;;;;;6.88;4.43;;;;;;;6.47;66.25;99976.94;4916054;29;20044;-78
2021/11/13 08:11:39;;;;;;;38.80;6.65;;;;;;;6.33;66.49;99960.34;4915992;29;20552;-80
2021/11/13 08:14:05;;;;;;;13.65;4.85;;;;;;;6.39;66.40;99975.56;4915643;29;20067;-78
2021/11/13 08:16:35;;;;;;;18.63;5.30;;;;;;;6.43;65.92;99975.84;4916180;29;20051;-76
2021/11/13 08:19:01;;;;;;;9.88;4.60;;;;;;;6.64;65.36;99988.34;4915497;29;20048;-77
2021/11/13 08:21:28;;;;;;;16.75;5.80;;;;;;;6.61;65.43;99983.47;4915101;29;20056;-79
2021/11/13 08:23:54;;;;;;;24.88;6.70;;;;;;;6.65;64.92;99983.72;4915201;29;20051;-78
2021/11/13 08:26:21;;;;;;;;;;;;;;;6.48;64.79;100001.09;4916062;29;20423;-76
2021/11/13 08:28:48;;;;;;;28.93;6.37;;;;;;;6.24;65.41;99998.06;4919015;29;19918;-79
2021/11/13 08:31:14;;;;;;;28.58;7.90;;;;;;;6.31;65.87;100009.47;4918993;29;20040;-77
2021/11/13 08:33:40;;;;;;;14.20;6.40;;;;;;;6.34;65.71;100008.94;4919357;29;20052;-77
2021/11/13 08:36:09;;;;;;;16.60;5.05;;;;;;;6.35;65.51;100013.28;4919436;29;20040;-79
2021/11/13 08:38:35;;;;;;;15.13;6.32;;;;;;;6.52;65.34;100010.34;4919208;29;20052;-77
2021/11/13 08:41:02;;;;;;;11.10;4.75;;;;;;;6.51;64.71;100018.75;4920113;29;20421;-78
2021/11/13 08:43:28;;;;;;;11.20;4.13;;;;;;;6.59;65.01;100019.06;4918626;29;20047;-80
2021/11/13 08:45:55;;;;;;;11.63;4.78;;;;;;;6.51;64.35;100013.31;4918879;29;20040;-77
2021/11/13 08:48:21;;;;;;;14.85;4.82;;;;;;;6.59;64.50;100012.81;4918458;29;20529;-77
2021/11/13 08:50:47;;;;;;;13.30;4.40;;;;;;;6.70;64.77;100024.50;4901752;29;20071;-76
2021/11/13 08:53:14;;;;;;;13.43;4.47;;;;;;;6.80;65.19;100017.16;4918604;29;20082;-76
2021/11/13 08:55:41;;;;;;;9.38;4.28;;;;;;;6.83;63.98;100030.22;4918788;29;20048;-77
2021/11/13 08:58:07;;;;;;;;;;;;;;;6.95;64.18;100029.13;4918663;29;20152;-79
2021/11/13 09:01:05;;;;;;;14.55;4.53;;;;;;;6.78;65.11;100030.19;4918750;29;19923;-76
2021/11/13 09:03:34;;;;;;;28.60;5.72;;;;;;;6.71;65.01;100034.28;4933504;29;20059;-82
2021/11/13 09:06:01;;;;;;;26.00;5.28;;;;;;;6.55;64.89;100009.78;4937431;29;20456;-77
2021/11/13 09:08:27;;;;;;;19.13;5.35;;;;;;;6.69;65.10;100037.28;4936880;29;20079;-79
2021/11/13 09:10:54;;;;;;;24.83;6.25;;;;;;;6.79;64.71;100039.19;4937466;29;20067;-79
2021/11/13 09:13:24;;;;;;;20.08;7.25;;;;;;;6.81;64.94;100043.25;4937123;29;20062;-75
2021/11/13 09:15:50;;;;;;;22.50;9.15;;;;;;;6.87;64.60;100044.06;4937526;29;20229;-79
2021/11/13 09:18:18;;;;;;;18.50;6.30;;;;;;;6.99;64.16;100050.06;4937406;29;20064;-81
2021/11/13 09:20:45;;;;;;;19.15;6.70;;;;;;;6.85;64.23;100051.66;4936095;29;20043;-80
2021/11/13 09:23:13;;;;;;;21.70;5.35;;;;;;;6.68;64.37;100048.41;4936862;29;20036;-79
2021/11/13 09:25:41;;;;;;;14.20;5.35;;;;;;;6.69;65.16;100050.00;4936193;29;20050;-76
2021/11/13 09:28:08;;;;;;;15.93;4.90;;;;;;;6.69;64.72;100059.00;4936692;29;20083;-79
2021/11/13 09:30:37;;;;;;;14.00;5.43;;;;;;;6.67;65.29;100071.22;4936154;29;20067;-78
2021/11/13 09:33:05;;;;;;;10.27;5.13;;;;;;;6.77;65.63;100065.81;4935052;29;20168;-78
2021/11/13 09:35:33;;;;;;;21.20;6.25;;;;;;;6.79;66.35;100066.38;4941271;28;20031;-80
2021/11/13 09:37:59;;;;;;;11.88;6.10;;;;;;;6.92;65.19;100074.00;4934160;29;20050;-76
2021/11/13 09:40:27;;;;;;;13.67;5.77;;;;;;;6.78;65.56;100076.41;4916877;29;20092;-75
2021/11/13 09:42:58;;;;;;;24.63;6.70;;;;;;;6.88;65.72;100074.78;4916476;29;20287;-78
2021/11/13 09:45:26;;;;;;;14.65;5.80;;;;;;;6.99;65.28;100076.44;4915620;29;20048;-80
2021/11/13 09:47:57;;;;;;;15.82;5.47;;;;;;;6.97;64.79;100084.84;4915905;29;20048;-78
2021/11/13 09:50:26;;;;;;;19.83;5.30;;;;;;;6.85;65.63;100081.56;4914908;29;20518;-75
2021/11/13 09:52:53;;;;;;;14.82;5.82;;;;;;;6.85;66.06;100081.56;4913239;29;20044;-79
2021/11/13 09:55:21;;;;;;;31.50;7.80;;;;;;;6.94;66.82;100101.69;4914767;29;20076;-74
2021/11/13 09:57:48;;;;;;;11.90;5.32;;;;;;;6.96;66.09;100098.72;4932266;29;20106;-74
2021/11/13 10:00:21;;;;;;;11.63;5.18;;;;;;;7.06;66.35;100106.91;4933994;28;20052;-75
2021/11/13 10:02:49;;;;;;;9.60;5.30;;;;;;;7.10;66.86;100104.44;4931817;29;20075;-79
2021/11/13 10:05:15;;;;;;;14.85;5.75;;;;;;;7.04;66.41;100099.00;4932359;29;20036;-74
2021/11/13 10:07:43;;;;;;;12.70;5.22;;;;;;;7.10;64.28;100118.03;4941754;29;20528;-76
2021/11/13 10:10:13;;;;;;;19.40;6.63;;;;;;;7.28;66.00;100117.50;4942379;29;20046;-78
2021/11/13 10:12:43;;;;;;;15.25;6.55;;;;;;;7.28;64.37;100122.94;4945104;29;20146;-78
2021/11/13 10:15:38;;;;;;;18.17;8.18;;;;;;;7.25;63.92;100128.91;4943812;29;20035;-77
2021/11/13 10:18:20;;;;;;;15.45;5.72;;;;;;;6.92;64.00;100122.06;4938402;29;20043;-77
2021/11/13 10:20:51;;;;;;;22.20;6.07;;;;;;;7.13;64.76;100137.34;4931805;29;20906;-76
2021/11/13 10:23:40;;;;;;;8.25;4.60;;;;;;;7.11;64.59;100134.06;4913106;29;20047;-78
2021/11/13 10:26:17;;;;;;;14.52;5.95;;;;;;;7.10;62.86;100124.28;4912104;29;20087;-77
2021/11/13 10:28:55;;;;;;;13.90;7.20;;;;;;;7.28;62.47;100150.13;4911084;29;20119;-78
2021/11/13 10:31:24;;;;;;;11.93;6.28;;;;;;;7.20;62.44;100148.78;4911662;29;20051;-76
2021/11/13 10:33:52;;;;;;;18.20;5.95;;;;;;;7.14;63.55;100158.00;4919813;29;20048;-78
2021/11/13 10:36:22;;;;;;;10.27;4.18;;;;;;;7.13;62.39;100153.66;4929904;29;20043;-78
2021/11/13 10:39:06;;;;;;;14.05;4.55;;;;;;;7.06;62.33;100153.94;4930041;29;20054;-79
2021/11/13 10:41:55;;;;;;;10.65;4.68;;;;;;;6.99;62.97;100169.69;4929241;29;20047;-75
2021/11/13 10:44:49;;;;;;;19.38;5.50;;;;;;;6.93;63.05;100167.22;4911924;29;20079;-75
2021/11/13 10:47:22;;;;;;;19.13;8.60;;;;;;;6.94;63.67;100172.38;4888496;29;20052;-76
2021/11/13 10:49:52;;;;;;;19.67;6.95;;;;;;;7.01;64.26;100188.44;4889544;29;20044;-76
2021/11/13 10:52:22;;;;;;;16.58;7.22;;;;;;;6.98;64.34;100183.53;4891211;29;20079;-75
2021/11/13 10:54:51;;;;;;;23.02;8.98;;;;;;;6.71;65.01;100197.31;4896808;29;20044;-76
2021/11/13 10:57:28;;;;;;;14.63;5.72;;;;;;;6.34;66.97;100209.88;4878528;29;20048;-76
2021/11/13 10:59:55;;;;;;;10.35;4.93;;;;;;;6.21;67.98;100213.06;4886951;29;20533;-77
2021/11/13 11:02:22;;;;;;;9.55;5.57;;;;;;;6.13;68.53;100210.03;4886866;29;20143;-76
2021/11/13 11:04:49;;;;;;;17.17;6.70;;;;;;;5.88;68.98;100216.88;4886923;29;20278;-76
2021/11/13 11:07:24;;;;;;;14.18;5.90;;;;;;;5.83;69.64;100209.53;4886835;29;20036;-76
2021/11/13 11:10:01;;;;;;;10.20;5.45;;;;;;;5.89;69.76;100216.63;4886298;29;20048;-78
2021/11/13 11:12:31;;;;;;;22.42;7.07;;;;;;;5.85;70.62;100212.78;4886386;29;20565;-77
2021/11/13 11:14:57;;;;;;;25.73;7.90;;;;;;;6.16;70.02;100223.91;4886083;29;20069;-77
2021/11/13 11:17:27;;;;;;;19.50;7.97;;;;;;;6.39;70.04;100222.69;4886052;29;20056;-80
2021/11/13 11:19:55;;;;;;;18.40;7.40;;;;;;;6.42;70.32;100222.16;4885252;29;20056;-76
2021/11/13 11:22:23;;;;;;;21.77;6.07;;;;;;;6.32;68.37;100219.38;4885354;29;20550;-79
2021/11/13 11:24:49;;;;;;;14.32;5.13;;;;;;;6.37;68.07;100232.19;4902546;29;20058;-80
2021/11/13 11:27:27;;;;;;;14.43;5.28;;;;;;;6.41;68.56;100238.72;4906824;29;20044;-76
2021/11/13 11:29:56;;;;;;;12.73;4.75;;;;;;;6.29;68.10;100239.75;4906682;29;20225;-79
2021/11/13 11:32:29;;;;;;;21.27;7.95;;;;;;;6.25;68.58;100251.38;4905903;29;20065;-77
2021/11/13 11:35:01;;;;;;;10.48;4.53;;;;;;;6.13;69.18;100254.28;4905855;29;20409;-76
2021/11/13 11:37:39;;;;;;;14.93;4.90;;;;;;;6.12;69.89;100247.22;4923887;29;20042;-77
2021/11/13 11:40:21;;;;;;;19.35;4.25;;;;;;;6.22;68.91;100246.47;4933732;28;20047;-82
2021/11/13 11:42:49;;;;;;;16.20;4.50;;;;;;;6.16;68.55;100256.50;4933915;28;20040;-82
2021/11/13 11:45:17;;;;;;;;;;;;;;;6.11;68.41;100259.16;4936341;29;20050;-75